Terminal Aerodrome Forecast
Issued by NWS

Home | Current Version | Previous Version | Text Only | Print | Product List | Glossary On
Versions: 1 2 3 4 5 6 7 8 9 10 11 12
471
FTUS46 KHNX 222325
TAFMER
TAF
KMER 222325Z 2300/2324 13004KT 6SM BR VCSH BKN027 OVC040
     FM230600 34004KT 4SM BR OVC025
     FM231000 34003KT 2SM BR OVC004
     FM232000 34002KT P6SM SCT060=

USA.gov is the U.S. government's official web portal to all federal, state and local government web resources and services.